sensor_id;sensor_type;location;lat;lon;timestamp;temperature;humidity
44461;DHT22;30162;53.642;10.640;2023-04-24T00:01:49;17.10;81.70
44461;DHT22;30162;53.642;10.640;2023-04-24T00:04:15;17.10;81.90
44461;DHT22;30162;53.642;10.640;2023-04-24T00:06:42;17.10;82.20
44461;DHT22;30162;53.642;10.640;2023-04-24T00:09:09;17.10;83.60
44461;DHT22;30162;53.642;10.640;2023-04-24T00:11:37;16.90;84.90
44461;DHT22;30162;53.642;10.640;2023-04-24T00:14:03;16.90;84.50
44461;DHT22;30162;53.642;10.640;2023-04-24T00:16:29;16.70;86.00
44461;DHT22;30162;53.642;10.640;2023-04-24T00:18:55;16.70;86.90
44461;DHT22;30162;53.642;10.640;2023-04-24T00:21:20;16.40;87.50
44461;DHT22;30162;53.642;10.640;2023-04-24T00:23:47;16.30;86.60
44461;DHT22;30162;53.642;10.640;2023-04-24T00:26:13;16.40;86.10
44461;DHT22;30162;53.642;10.640;2023-04-24T00:28:38;16.50;86.00
44461;DHT22;30162;53.642;10.640;2023-04-24T00:31:04;16.50;86.40
44461;DHT22;30162;53.642;10.640;2023-04-24T00:33:30;16.40;85.40
44461;DHT22;30162;53.642;10.640;2023-04-24T00:35:55;16.30;86.50
44461;DHT22;30162;53.642;10.640;2023-04-24T00:38:21;16.30;87.00
44461;DHT22;30162;53.642;10.640;2023-04-24T00:40:47;16.40;86.90
44461;DHT22;30162;53.642;10.640;2023-04-24T00:43:13;16.40;86.70
44461;DHT22;30162;53.642;10.640;2023-04-24T00:45:39;16.50;87.30
44461;DHT22;30162;53.642;10.640;2023-04-24T00:48:05;16.40;88.30
44461;DHT22;30162;53.642;10.640;2023-04-24T00:50:32;16.30;88.40
44461;DHT22;30162;53.642;10.640;2023-04-24T00:52:57;16.10;90.00
44461;DHT22;30162;53.642;10.640;2023-04-24T00:55:24;16.20;90.20
44461;DHT22;30162;53.642;10.640;2023-04-24T00:57:50;15.70;90.70
44461;DHT22;30162;53.642;10.640;2023-04-24T01:00:16;15.70;90.60
44461;DHT22;30162;53.642;10.640;2023-04-24T01:02:43;15.90;90.80
44461;DHT22;30162;53.642;10.640;2023-04-24T01:05:11;16.00;90.70
44461;DHT22;30162;53.642;10.640;2023-04-24T01:07:37;16.00;90.80
44461;DHT22;30162;53.642;10.640;2023-04-24T01:10:03;16.10;90.60
44461;DHT22;30162;53.642;10.640;2023-04-24T01:12:29;15.50;91.10
44461;DHT22;30162;53.642;10.640;2023-04-24T01:14:56;15.70;91.30
44461;DHT22;30162;53.642;10.640;2023-04-24T01:17:22;15.70;91.20
44461;DHT22;30162;53.642;10.640;2023-04-24T01:19:47;15.90;91.30
44461;DHT22;30162;53.642;10.640;2023-04-24T01:22:16;15.80;91.10
44461;DHT22;30162;53.642;10.640;2023-04-24T01:24:42;15.50;91.50
44461;DHT22;30162;53.642;10.640;2023-04-24T01:27:09;15.70;91.60
44461;DHT22;30162;53.642;10.640;2023-04-24T01:29:35;15.70;91.40
44461;DHT22;30162;53.642;10.640;2023-04-24T01:32:02;15.70;91.70
44461;DHT22;30162;53.642;10.640;2023-04-24T01:34:28;15.70;91.60
44461;DHT22;30162;53.642;10.640;2023-04-24T01:36:53;15.50;91.70
44461;DHT22;30162;53.642;10.640;2023-04-24T01:39:19;15.50;92.30
44461;DHT22;30162;53.642;10.640;2023-04-24T01:41:46;15.60;92.10
44461;DHT22;30162;53.642;10.640;2023-04-24T01:44:12;15.50;92.00
44461;DHT22;30162;53.642;10.640;2023-04-24T01:46:38;15.60;92.10
44461;DHT22;30162;53.642;10.640;2023-04-24T01:49:03;15.70;92.00
44461;DHT22;30162;53.642;10.640;2023-04-24T01:51:29;15.60;92.20
44461;DHT22;30162;53.642;10.640;2023-04-24T01:53:55;15.60;92.10
44461;DHT22;30162;53.642;10.640;2023-04-24T01:56:22;15.70;91.90
44461;DHT22;30162;53.642;10.640;2023-04-24T01:58:49;15.70;92.00
44461;DHT22;30162;53.642;10.640;2023-04-24T02:01:18;15.50;92.10
44461;DHT22;30162;53.642;10.640;2023-04-24T02:03:44;15.60;92.20
44461;DHT22;30162;53.642;10.640;2023-04-24T02:06:10;15.60;92.00
44461;DHT22;30162;53.642;10.640;2023-04-24T02:08:35;15.60;92.00
44461;DHT22;30162;53.642;10.640;2023-04-24T02:11:01;15.70;91.90
44461;DHT22;30162;53.642;10.640;2023-04-24T02:13:27;15.70;91.70
44461;DHT22;30162;53.642;10.640;2023-04-24T02:15:53;15.70;91.60
44461;DHT22;30162;53.642;10.640;2023-04-24T02:18:19;15.70;91.60
44461;DHT22;30162;53.642;10.640;2023-04-24T02:20:45;15.50;91.70
44461;DHT22;30162;53.642;10.640;2023-04-24T02:23:10;15.40;91.90
44461;DHT22;30162;53.642;10.640;2023-04-24T02:25:36;15.30;92.10
44461;DHT22;30162;53.642;10.640;2023-04-24T02:28:01;15.20;91.90
44461;DHT22;30162;53.642;10.640;2023-04-24T02:30:28;15.20;91.90
44461;DHT22;30162;53.642;10.640;2023-04-24T02:32:53;15.10;91.90
44461;DHT22;30162;53.642;10.640;2023-04-24T02:35:19;15.10;91.80
44461;DHT22;30162;53.642;10.640;2023-04-24T02:37:45;15.00;92.00
44461;DHT22;30162;53.642;10.640;2023-04-24T02:40:11;14.60;92.80
44461;DHT22;30162;53.642;10.640;2023-04-24T02:42:36;14.70;92.60
44461;DHT22;30162;53.642;10.640;2023-04-24T02:45:02;14.70;92.40
44461;DHT22;30162;53.642;10.640;2023-04-24T02:47:27;14.80;92.30
44461;DHT22;30162;53.642;10.640;2023-04-24T02:49:53;14.60;92.10
44461;DHT22;30162;53.642;10.640;2023-04-24T02:52:18;14.50;92.20
44461;DHT22;30162;53.642;10.640;2023-04-24T02:54:44;14.50;92.40
44461;DHT22;30162;53.642;10.640;2023-04-24T02:57:10;14.50;92.50
44461;DHT22;30162;53.642;10.640;2023-04-24T02:59:35;14.50;92.30
44461;DHT22;30162;53.642;10.640;2023-04-24T03:02:01;14.50;92.10
44461;DHT22;30162;53.642;10.640;2023-04-24T03:04:26;14.40;92.10
44461;DHT22;30162;53.642;10.640;2023-04-24T03:06:52;14.10;92.50
44461;DHT22;30162;53.642;10.640;2023-04-24T03:09:20;14.20;92.50
44461;DHT22;30162;53.642;10.640;2023-04-24T03:11:45;14.40;92.40
44461;DHT22;30162;53.642;10.640;2023-04-24T03:14:11;14.50;92.10
44461;DHT22;30162;53.642;10.640;2023-04-24T03:16:37;14.50;91.60
44461;DHT22;30162;53.642;10.640;2023-04-24T03:19:03;14.40;91.90
44461;DHT22;30162;53.642;10.640;2023-04-24T03:21:29;14.40;91.70
44461;DHT22;30162;53.642;10.640;2023-04-24T03:23:54;14.30;91.70
44461;DHT22;30162;53.642;10.640;2023-04-24T03:26:20;14.10;91.90
44461;DHT22;30162;53.642;10.640;2023-04-24T03:28:45;14.10;92.10
44461;DHT22;30162;53.642;10.640;2023-04-24T03:31:11;14.10;92.20
44461;DHT22;30162;53.642;10.640;2023-04-24T03:33:36;14.00;92.10
44461;DHT22;30162;53.642;10.640;2023-04-24T03:36:02;13.90;92.60
44461;DHT22;30162;53.642;10.640;2023-04-24T03:38:28;13.70;92.50
44461;DHT22;30162;53.642;10.640;2023-04-24T03:40:53;13.70;92.80
44461;DHT22;30162;53.642;10.640;2023-04-24T03:43:19;13.70;92.80
44461;DHT22;30162;53.642;10.640;2023-04-24T03:45:44;13.80;92.90
44461;DHT22;30162;53.642;10.640;2023-04-24T03:48:10;13.80;93.00
44461;DHT22;30162;53.642;10.640;2023-04-24T03:50:36;13.90;93.00
44461;DHT22;30162;53.642;10.640;2023-04-24T03:53:01;13.80;93.00
44461;DHT22;30162;53.642;10.640;2023-04-24T03:55:27;13.90;92.90
44461;DHT22;30162;53.642;10.640;2023-04-24T03:57:52;13.80;92.80
44461;DHT22;30162;53.642;10.640;2023-04-24T04:00:18;13.70;92.90
44461;DHT22;30162;53.642;10.640;2023-04-24T04:02:44;13.80;92.50
44461;DHT22;30162;53.642;10.640;2023-04-24T04:05:09;13.80;92.40
44461;DHT22;30162;53.642;10.640;2023-04-24T04:07:35;13.80;92.60
44461;DHT22;30162;53.642;10.640;2023-04-24T04:10:00;13.80;92.70
44461;DHT22;30162;53.642;10.640;2023-04-24T04:12:26;13.70;92.90
44461;DHT22;30162;53.642;10.640;2023-04-24T04:14:51;13.30;93.10
44461;DHT22;30162;53.642;10.640;2023-04-24T04:17:17;13.60;93.10
44461;DHT22;30162;53.642;10.640;2023-04-24T04:19:43;13.80;92.80
44461;DHT22;30162;53.642;10.640;2023-04-24T04:22:08;13.80;92.40
44461;DHT22;30162;53.642;10.640;2023-04-24T04:24:34;13.70;92.50
44461;DHT22;30162;53.642;10.640;2023-04-24T04:27:03;13.70;92.30
44461;DHT22;30162;53.642;10.640;2023-04-24T04:29:30;13.80;92.00
44461;DHT22;30162;53.642;10.640;2023-04-24T04:31:56;13.80;92.20
44461;DHT22;30162;53.642;10.640;2023-04-24T04:34:22;13.70;92.10
44461;DHT22;30162;53.642;10.640;2023-04-24T04:36:48;13.50;91.90
44461;DHT22;30162;53.642;10.640;2023-04-24T04:39:14;13.50;92.40
44461;DHT22;30162;53.642;10.640;2023-04-24T04:41:40;13.50;92.20
44461;DHT22;30162;53.642;10.640;2023-04-24T04:44:07;13.50;92.30
44461;DHT22;30162;53.642;10.640;2023-04-24T04:46:34;13.50;92.30
44461;DHT22;30162;53.642;10.640;2023-04-24T04:49:01;13.50;92.10
44461;DHT22;30162;53.642;10.640;2023-04-24T04:51:26;13.60;92.40
44461;DHT22;30162;53.642;10.640;2023-04-24T04:53:52;13.60;92.30
44461;DHT22;30162;53.642;10.640;2023-04-24T04:56:18;13.60;92.20
44461;DHT22;30162;53.642;10.640;2023-04-24T04:58:43;13.60;92.20
44461;DHT22;30162;53.642;10.640;2023-04-24T05:01:09;13.60;92.10
44461;DHT22;30162;53.642;10.640;2023-04-24T05:03:34;13.50;91.80
44461;DHT22;30162;53.642;10.640;2023-04-24T05:06:01;13.50;92.10
44461;DHT22;30162;53.642;10.640;2023-04-24T05:08:27;13.60;91.90
44461;DHT22;30162;53.642;10.640;2023-04-24T05:10:53;13.60;92.20
44461;DHT22;30162;53.642;10.640;2023-04-24T05:13:18;13.80;92.20
44461;DHT22;30162;53.642;10.640;2023-04-24T05:15:44;14.00;92.00
44461;DHT22;30162;53.642;10.640;2023-04-24T05:18:10;14.30;91.70
44461;DHT22;30162;53.642;10.640;2023-04-24T05:20:35;14.50;91.10
44461;DHT22;30162;53.642;10.640;2023-04-24T05:23:01;14.50;90.80
44461;DHT22;30162;53.642;10.640;2023-04-24T05:25:27;14.60;90.80
44461;DHT22;30162;53.642;10.640;2023-04-24T05:27:52;14.70;90.70
44461;DHT22;30162;53.642;10.640;2023-04-24T05:30:19;14.90;90.60
44461;DHT22;30162;53.642;10.640;2023-04-24T05:32:45;15.10;90.00
44461;DHT22;30162;53.642;10.640;2023-04-24T05:35:10;15.30;88.80
44461;DHT22;30162;53.642;10.640;2023-04-24T05:37:36;15.40;88.70
44461;DHT22;30162;53.642;10.640;2023-04-24T05:40:01;15.50;89.00
44461;DHT22;30162;53.642;10.640;2023-04-24T05:42:28;15.40;88.20
44461;DHT22;30162;53.642;10.640;2023-04-24T05:44:53;15.20;86.50
44461;DHT22;30162;53.642;10.640;2023-04-24T05:47:19;15.40;87.10
44461;DHT22;30162;53.642;10.640;2023-04-24T05:49:47;15.30;87.40
44461;DHT22;30162;53.642;10.640;2023-04-24T05:52:12;15.40;87.20
44461;DHT22;30162;53.642;10.640;2023-04-24T05:54:38;15.30;86.90
44461;DHT22;30162;53.642;10.640;2023-04-24T05:57:03;15.30;87.50
44461;DHT22;30162;53.642;10.640;2023-04-24T05:59:33;15.30;86.00
44461;DHT22;30162;53.642;10.640;2023-04-24T06:01:59;15.40;86.40
44461;DHT22;30162;53.642;10.640;2023-04-24T06:04:24;15.70;86.10
44461;DHT22;30162;53.642;10.640;2023-04-24T06:06:50;16.00;86.00
44461;DHT22;30162;53.642;10.640;2023-04-24T06:09:21;16.30;84.70
44461;DHT22;30162;53.642;10.640;2023-04-24T06:11:47;16.30;83.20
44461;DHT22;30162;53.642;10.640;2023-04-24T06:14:12;16.50;82.90
44461;DHT22;30162;53.642;10.640;2023-04-24T06:16:39;16.60;82.10
44461;DHT22;30162;53.642;10.640;2023-04-24T06:19:05;16.10;82.10
44461;DHT22;30162;53.642;10.640;2023-04-24T06:21:30;16.40;83.20
44461;DHT22;30162;53.642;10.640;2023-04-24T06:23:56;16.40;83.00
44461;DHT22;30162;53.642;10.640;2023-04-24T06:26:23;16.30;82.30
44461;DHT22;30162;53.642;10.640;2023-04-24T06:28:50;16.90;81.10
44461;DHT22;30162;53.642;10.640;2023-04-24T06:31:16;17.10;79.70
44461;DHT22;30162;53.642;10.640;2023-04-24T06:33:42;16.70;79.50
44461;DHT22;30162;53.642;10.640;2023-04-24T06:36:08;17.00;79.90
44461;DHT22;30162;53.642;10.640;2023-04-24T06:38:34;17.40;79.10
44461;DHT22;30162;53.642;10.640;2023-04-24T06:40:59;18.00;80.20
44461;DHT22;30162;53.642;10.640;2023-04-24T06:43:25;18.40;78.30
44461;DHT22;30162;53.642;10.640;2023-04-24T06:45:51;18.50;78.00
44461;DHT22;30162;53.642;10.640;2023-04-24T06:48:16;18.80;76.90
44461;DHT22;30162;53.642;10.640;2023-04-24T06:50:42;18.90;78.50
44461;DHT22;30162;53.642;10.640;2023-04-24T06:53:07;19.10;76.20
44461;DHT22;30162;53.642;10.640;2023-04-24T06:55:33;18.80;76.10
44461;DHT22;30162;53.642;10.640;2023-04-24T06:57:59;19.10;74.80
44461;DHT22;30162;53.642;10.640;2023-04-24T07:00:24;18.40;74.70
44461;DHT22;30162;53.642;10.640;2023-04-24T07:02:50;18.60;76.50
44461;DHT22;30162;53.642;10.640;2023-04-24T07:05:15;18.60;73.80
44461;DHT22;30162;53.642;10.640;2023-04-24T07:07:41;18.60;73.80
44461;DHT22;30162;53.642;10.640;2023-04-24T07:10:07;18.30;75.20
44461;DHT22;30162;53.642;10.640;2023-04-24T07:12:33;18.60;75.90
44461;DHT22;30162;53.642;10.640;2023-04-24T07:15:00;18.70;75.10
44461;DHT22;30162;53.642;10.640;2023-04-24T07:17:26;19.00;74.20
44461;DHT22;30162;53.642;10.640;2023-04-24T07:19:51;19.20;73.30
44461;DHT22;30162;53.642;10.640;2023-04-24T07:22:17;19.20;73.30
44461;DHT22;30162;53.642;10.640;2023-04-24T07:24:44;19.00;72.10
44461;DHT22;30162;53.642;10.640;2023-04-24T07:27:09;19.20;74.70
44461;DHT22;30162;53.642;10.640;2023-04-24T07:29:35;19.20;73.30
44461;DHT22;30162;53.642;10.640;2023-04-24T07:32:01;19.40;73.20
44461;DHT22;30162;53.642;10.640;2023-04-24T07:34:26;19.40;73.80
44461;DHT22;30162;53.642;10.640;2023-04-24T07:36:52;19.40;72.50
44461;DHT22;30162;53.642;10.640;2023-04-24T07:39:18;19.40;73.10
44461;DHT22;30162;53.642;10.640;2023-04-24T07:41:43;19.30;72.40
44461;DHT22;30162;53.642;10.640;2023-04-24T07:44:09;19.20;72.50
44461;DHT22;30162;53.642;10.640;2023-04-24T07:46:35;18.60;72.30
44461;DHT22;30162;53.642;10.640;2023-04-24T07:49:01;18.80;74.20
44461;DHT22;30162;53.642;10.640;2023-04-24T07:51:27;18.90;73.20
44461;DHT22;30162;53.642;10.640;2023-04-24T07:53:53;18.80;72.60
44461;DHT22;30162;53.642;10.640;2023-04-24T07:56:20;18.90;73.00
44461;DHT22;30162;53.642;10.640;2023-04-24T07:58:46;19.10;73.10
44461;DHT22;30162;53.642;10.640;2023-04-24T08:01:11;19.20;71.70
44461;DHT22;30162;53.642;10.640;2023-04-24T08:03:37;19.50;72.50
44461;DHT22;30162;53.642;10.640;2023-04-24T08:06:03;19.90;72.20
44461;DHT22;30162;53.642;10.640;2023-04-24T08:08:28;19.90;69.20
44461;DHT22;30162;53.642;10.640;2023-04-24T08:10:54;19.60;69.90
44461;DHT22;30162;53.642;10.640;2023-04-24T08:13:20;19.90;73.00
44461;DHT22;30162;53.642;10.640;2023-04-24T08:15:46;20.20;71.20
44461;DHT22;30162;53.642;10.640;2023-04-24T08:18:11;20.00;71.00
44461;DHT22;30162;53.642;10.640;2023-04-24T08:20:39;19.80;71.00
44461;DHT22;30162;53.642;10.640;2023-04-24T08:23:04;19.90;70.60
44461;DHT22;30162;53.642;10.640;2023-04-24T08:25:30;20.20;70.70
44461;DHT22;30162;53.642;10.640;2023-04-24T08:27:56;20.60;71.30
44461;DHT22;30162;53.642;10.640;2023-04-24T08:30:21;20.70;68.10
44461;DHT22;30162;53.642;10.640;2023-04-24T08:32:47;20.60;69.20
44461;DHT22;30162;53.642;10.640;2023-04-24T08:35:13;20.40;69.90
44461;DHT22;30162;53.642;10.640;2023-04-24T08:37:38;20.50;67.60
44461;DHT22;30162;53.642;10.640;2023-04-24T08:40:10;20.40;67.60
44461;DHT22;30162;53.642;10.640;2023-04-24T08:42:37;19.90;68.40
44461;DHT22;30162;53.642;10.640;2023-04-24T08:45:03;19.50;68.30
44461;DHT22;30162;53.642;10.640;2023-04-24T08:47:29;19.50;68.60
44461;DHT22;30162;53.642;10.640;2023-04-24T08:49:56;19.40;67.50
44461;DHT22;30162;53.642;10.640;2023-04-24T08:52:22;19.10;68.20
44461;DHT22;30162;53.642;10.640;2023-04-24T08:54:48;19.10;69.10
44461;DHT22;30162;53.642;10.640;2023-04-24T08:57:15;18.90;69.60
44461;DHT22;30162;53.642;10.640;2023-04-24T08:59:40;19.00;72.20
44461;DHT22;30162;53.642;10.640;2023-04-24T09:02:10;19.20;69.60
44461;DHT22;30162;53.642;10.640;2023-04-24T09:04:35;19.50;69.90
44461;DHT22;30162;53.642;10.640;2023-04-24T09:07:02;19.80;69.10
44461;DHT22;30162;53.642;10.640;2023-04-24T09:09:30;20.10;69.70
44461;DHT22;30162;53.642;10.640;2023-04-24T09:11:56;20.50;67.80
44461;DHT22;30162;53.642;10.640;2023-04-24T09:14:23;19.90;66.40
44461;DHT22;30162;53.642;10.640;2023-04-24T09:16:49;20.00;68.90
44461;DHT22;30162;53.642;10.640;2023-04-24T09:19:15;20.00;68.10
44461;DHT22;30162;53.642;10.640;2023-04-24T09:21:40;19.90;68.40
44461;DHT22;30162;53.642;10.640;2023-04-24T09:24:16;20.00;67.70
44461;DHT22;30162;53.642;10.640;2023-04-24T09:26:48;20.20;68.00
44461;DHT22;30162;53.642;10.640;2023-04-24T09:29:17;20.40;66.70
44461;DHT22;30162;53.642;10.640;2023-04-24T09:31:45;20.10;67.40
44461;DHT22;30162;53.642;10.640;2023-04-24T09:34:10;19.50;67.40
44461;DHT22;30162;53.642;10.640;2023-04-24T09:36:41;19.30;70.20
44461;DHT22;30162;53.642;10.640;2023-04-24T09:39:12;19.60;69.90
44461;DHT22;30162;53.642;10.640;2023-04-24T09:41:53;19.90;69.40
44461;DHT22;30162;53.642;10.640;2023-04-24T09:44:20;20.10;67.90
44461;DHT22;30162;53.642;10.640;2023-04-24T09:46:51;20.50;68.80
44461;DHT22;30162;53.642;10.640;2023-04-24T09:49:27;20.90;67.50
44461;DHT22;30162;53.642;10.640;2023-04-24T09:52:05;20.70;68.00
44461;DHT22;30162;53.642;10.640;2023-04-24T09:54:32;21.30;68.60
44461;DHT22;30162;53.642;10.640;2023-04-24T09:56:58;21.00;66.10
44461;DHT22;30162;53.642;10.640;2023-04-24T09:59:25;20.60;66.50
44461;DHT22;30162;53.642;10.640;2023-04-24T10:01:51;20.50;66.40
44461;DHT22;30162;53.642;10.640;2023-04-24T10:04:25;20.50;67.60
44461;DHT22;30162;53.642;10.640;2023-04-24T10:06:53;20.40;67.10
44461;DHT22;30162;53.642;10.640;2023-04-24T10:09:20;20.00;67.70
44461;DHT22;30162;53.642;10.640;2023-04-24T10:11:49;19.60;68.50
44461;DHT22;30162;53.642;10.640;2023-04-24T10:14:20;19.70;68.00
44461;DHT22;30162;53.642;10.640;2023-04-24T10:16:49;20.00;67.90
44461;DHT22;30162;53.642;10.640;2023-04-24T10:19:16;19.40;68.60
44461;DHT22;30162;53.642;10.640;2023-04-24T10:21:44;19.40;68.60
44461;DHT22;30162;53.642;10.640;2023-04-24T10:24:17;19.50;67.00
44461;DHT22;30162;53.642;10.640;2023-04-24T10:26:45;19.50;68.30
44461;DHT22;30162;53.642;10.640;2023-04-24T10:29:12;19.60;68.30
44461;DHT22;30162;53.642;10.640;2023-04-24T10:31:38;19.60;69.70
44461;DHT22;30162;53.642;10.640;2023-04-24T10:34:05;19.30;68.80
44461;DHT22;30162;53.642;10.640;2023-04-24T10:36:35;19.30;68.60
44461;DHT22;30162;53.642;10.640;2023-04-24T10:39:03;19.80;67.20
44461;DHT22;30162;53.642;10.640;2023-04-24T10:41:32;20.40;67.60
44461;DHT22;30162;53.642;10.640;2023-04-24T10:44:12;20.60;66.00
44461;DHT22;30162;53.642;10.640;2023-04-24T10:46:39;19.60;66.70
44461;DHT22;30162;53.642;10.640;2023-04-24T10:49:06;19.80;67.10
44461;DHT22;30162;53.642;10.640;2023-04-24T10:51:51;19.80;67.40
44461;DHT22;30162;53.642;10.640;2023-04-24T10:54:41;19.90;66.40
44461;DHT22;30162;53.642;10.640;2023-04-24T11:00:09;20.30;66.10
44461;DHT22;30162;53.642;10.640;2023-04-24T11:02:36;20.20;64.00
44461;DHT22;30162;53.642;10.640;2023-04-24T11:05:06;20.70;65.80
44461;DHT22;30162;53.642;10.640;2023-04-24T11:13:10;22.10;62.10
44461;DHT22;30162;53.642;10.640;2023-04-24T11:15:35;21.40;64.00
44461;DHT22;30162;53.642;10.640;2023-04-24T11:18:01;21.50;63.90
44461;DHT22;30162;53.642;10.640;2023-04-24T11:20:27;21.60;64.20
44461;DHT22;30162;53.642;10.640;2023-04-24T11:22:54;21.90;63.90
44461;DHT22;30162;53.642;10.640;2023-04-24T11:25:21;21.60;62.60
44461;DHT22;30162;53.642;10.640;2023-04-24T11:27:48;21.60;63.60
44461;DHT22;30162;53.642;10.640;2023-04-24T11:30:19;21.30;63.40
44461;DHT22;30162;53.642;10.640;2023-04-24T11:32:50;21.50;63.20
44461;DHT22;30162;53.642;10.640;2023-04-24T11:37:43;21.00;61.30
44461;DHT22;30162;53.642;10.640;2023-04-24T11:40:12;20.70;64.00
44461;DHT22;30162;53.642;10.640;2023-04-24T11:42:46;20.90;65.30
44461;DHT22;30162;53.642;10.640;2023-04-24T11:45:23;20.90;63.80
44461;DHT22;30162;53.642;10.640;2023-04-24T11:47:49;21.20;64.50
44461;DHT22;30162;53.642;10.640;2023-04-24T11:50:17;21.20;62.90
44461;DHT22;30162;53.642;10.640;2023-04-24T11:52:47;21.20;62.70
44461;DHT22;30162;53.642;10.640;2023-04-24T11:57:46;21.30;64.40
44461;DHT22;30162;53.642;10.640;2023-04-24T12:00:23;21.30;62.50
44461;DHT22;30162;53.642;10.640;2023-04-24T12:02:49;21.10;62.70
44461;DHT22;30162;53.642;10.640;2023-04-24T12:05:23;21.60;63.30
44461;DHT22;30162;53.642;10.640;2023-04-24T12:07:49;21.80;62.90
44461;DHT22;30162;53.642;10.640;2023-04-24T12:10:24;21.50;62.10
44461;DHT22;30162;53.642;10.640;2023-04-24T12:12:50;20.90;62.20
44461;DHT22;30162;53.642;10.640;2023-04-24T12:15:17;20.90;62.20
44461;DHT22;30162;53.642;10.640;2023-04-24T12:17:43;20.60;61.80
44461;DHT22;30162;53.642;10.640;2023-04-24T12:20:09;20.10;63.70
44461;DHT22;30162;53.642;10.640;2023-04-24T12:22:59;20.10;63.80
44461;DHT22;30162;53.642;10.640;2023-04-24T12:25:32;20.10;63.20
44461;DHT22;30162;53.642;10.640;2023-04-24T12:30:31;19.40;64.10
44461;DHT22;30162;53.642;10.640;2023-04-24T12:33:00;19.70;63.30
44461;DHT22;30162;53.642;10.640;2023-04-24T12:35:29;19.80;63.50
44461;DHT22;30162;53.642;10.640;2023-04-24T12:37:55;19.50;62.60
44461;DHT22;30162;53.642;10.640;2023-04-24T12:40:21;19.60;62.80
44461;DHT22;30162;53.642;10.640;2023-04-24T12:42:51;19.70;63.50
44461;DHT22;30162;53.642;10.640;2023-04-24T12:45:18;19.40;63.50
44461;DHT22;30162;53.642;10.640;2023-04-24T12:47:45;19.30;63.30
44461;DHT22;30162;53.642;10.640;2023-04-24T12:50:12;19.60;64.70
44461;DHT22;30162;53.642;10.640;2023-04-24T12:52:38;20.10;64.50
44461;DHT22;30162;53.642;10.640;2023-04-24T12:55:05;20.00;65.40
44461;DHT22;30162;53.642;10.640;2023-04-24T12:57:34;20.70;62.00
44461;DHT22;30162;53.642;10.640;2023-04-24T13:00:00;21.00;62.20
44461;DHT22;30162;53.642;10.640;2023-04-24T13:02:27;20.40;61.40
44461;DHT22;30162;53.642;10.640;2023-04-24T13:04:54;20.20;63.20
44461;DHT22;30162;53.642;10.640;2023-04-24T13:07:20;20.30;64.20
44461;DHT22;30162;53.642;10.640;2023-04-24T13:09:46;20.10;63.90
44461;DHT22;30162;53.642;10.640;2023-04-24T13:12:13;20.30;64.60
44461;DHT22;30162;53.642;10.640;2023-04-24T13:14:38;20.70;63.80
44461;DHT22;30162;53.642;10.640;2023-04-24T13:17:04;20.70;61.90
44461;DHT22;30162;53.642;10.640;2023-04-24T13:19:38;20.80;61.20
44461;DHT22;30162;53.642;10.640;2023-04-24T13:22:04;20.50;61.20
44461;DHT22;30162;53.642;10.640;2023-04-24T13:24:31;20.20;63.20
44461;DHT22;30162;53.642;10.640;2023-04-24T13:26:57;20.30;62.50
44461;DHT22;30162;53.642;10.640;2023-04-24T13:29:22;20.10;61.30
44461;DHT22;30162;53.642;10.640;2023-04-24T13:31:50;20.20;62.40
44461;DHT22;30162;53.642;10.640;2023-04-24T13:34:16;20.00;62.90
44461;DHT22;30162;53.642;10.640;2023-04-24T13:36:42;20.20;63.40
44461;DHT22;30162;53.642;10.640;2023-04-24T13:39:08;20.20;64.90
44461;DHT22;30162;53.642;10.640;2023-04-24T13:41:34;19.90;63.50
44461;DHT22;30162;53.642;10.640;2023-04-24T13:44:00;19.80;63.50
44461;DHT22;30162;53.642;10.640;2023-04-24T13:46:26;19.60;64.40
44461;DHT22;30162;53.642;10.640;2023-04-24T13:48:51;19.30;63.30
44461;DHT22;30162;53.642;10.640;2023-04-24T13:51:17;18.90;63.50
44461;DHT22;30162;53.642;10.640;2023-04-24T13:53:43;18.90;64.50
44461;DHT22;30162;53.642;10.640;2023-04-24T13:56:09;19.00;64.70
44461;DHT22;30162;53.642;10.640;2023-04-24T13:58:35;19.00;65.30
44461;DHT22;30162;53.642;10.640;2023-04-24T14:01:03;18.80;65.70
44461;DHT22;30162;53.642;10.640;2023-04-24T14:03:29;18.70;66.50
44461;DHT22;30162;53.642;10.640;2023-04-24T14:05:55;18.80;66.10
44461;DHT22;30162;53.642;10.640;2023-04-24T14:08:20;18.80;66.30
44461;DHT22;30162;53.642;10.640;2023-04-24T14:10:46;18.60;67.60
44461;DHT22;30162;53.642;10.640;2023-04-24T14:13:12;18.30;67.00
44461;DHT22;30162;53.642;10.640;2023-04-24T14:15:38;18.30;66.30
44461;DHT22;30162;53.642;10.640;2023-04-24T14:18:03;17.90;67.60
44461;DHT22;30162;53.642;10.640;2023-04-24T14:20:29;17.80;67.40
44461;DHT22;30162;53.642;10.640;2023-04-24T14:22:55;17.80;68.30
44461;DHT22;30162;53.642;10.640;2023-04-24T14:25:24;17.80;68.80
44461;DHT22;30162;53.642;10.640;2023-04-24T14:27:50;17.50;70.30
44461;DHT22;30162;53.642;10.640;2023-04-24T14:30:15;17.50;71.80
44461;DHT22;30162;53.642;10.640;2023-04-24T14:32:41;17.60;72.40
44461;DHT22;30162;53.642;10.640;2023-04-24T14:35:07;17.70;73.30
44461;DHT22;30162;53.642;10.640;2023-04-24T14:37:33;17.90;74.40
44461;DHT22;30162;53.642;10.640;2023-04-24T14:39:58;18.40;73.90
44461;DHT22;30162;53.642;10.640;2023-04-24T14:42:24;18.40;69.50
44461;DHT22;30162;53.642;10.640;2023-04-24T14:44:49;18.80;70.20
44461;DHT22;30162;53.642;10.640;2023-04-24T14:47:15;19.10;69.20
44461;DHT22;30162;53.642;10.640;2023-04-24T14:49:43;19.30;68.40
44461;DHT22;30162;53.642;10.640;2023-04-24T14:52:09;19.20;67.60
44461;DHT22;30162;53.642;10.640;2023-04-24T14:54:35;19.30;67.50
44461;DHT22;30162;53.642;10.640;2023-04-24T14:57:00;19.30;68.20
44461;DHT22;30162;53.642;10.640;2023-04-24T14:59:27;19.10;65.50
44461;DHT22;30162;53.642;10.640;2023-04-24T15:01:53;18.90;67.20
44461;DHT22;30162;53.642;10.640;2023-04-24T15:04:26;18.70;67.40
44461;DHT22;30162;53.642;10.640;2023-04-24T15:06:52;18.60;66.90
44461;DHT22;30162;53.642;10.640;2023-04-24T15:09:22;18.30;68.20
44461;DHT22;30162;53.642;10.640;2023-04-24T15:14:18;18.40;69.00
44461;DHT22;30162;53.642;10.640;2023-04-24T15:16:44;18.30;68.10
44461;DHT22;30162;53.642;10.640;2023-04-24T15:19:10;18.40;68.60
44461;DHT22;30162;53.642;10.640;2023-04-24T15:21:36;18.40;68.20
44461;DHT22;30162;53.642;10.640;2023-04-24T15:24:03;18.10;69.20
44461;DHT22;30162;53.642;10.640;2023-04-24T15:26:29;18.00;69.00
44461;DHT22;30162;53.642;10.640;2023-04-24T15:28:54;18.10;69.20
44461;DHT22;30162;53.642;10.640;2023-04-24T15:31:20;17.90;69.60